Two Rivers, Wisconsin
Current Conditions -  °F | °C
As of 1:56 PM on Wednesday 28 Jan 2015 (Local Time) from KMTW Reporting Station
Few Clouds Few Clouds  
Wind Chill: 20°   Ceiling: Unl
Heat Index: 32°   Visibility: 10mi
Dew Point: 26°   Wind: 20mph
Humidity: 79%   Direction: 180°S
Pressure: 30.1"   Gusts: NA
Location:  44.15°N, 87.57°W
Report Text: KMTW 281956Z AUTO 18017KT 10SM FEW012 00/M03 A3010 RMK AO2 SLP217 T00001033 FZRANO
Loading
Personal Weather Stations






























Interactive Weather Map New forecast layout! Learn more

10-Day Weather Forecast

Advertisements
Track Severe Weather on mobile